Time;durP1;ratioP1;P1;durP2;ratioP2;P2;SDS_P1;SDS_P2;PMS_P1;PMS_P2;Temp;Humidity;BMP_temperature;BMP_pressure;BME280_temperature;BME280_humidity;BME280_pressure;Samples;Min_cycle;Max_cycle;Signal;HPM_P1;HPM_P2
2022/03/22 00:00:23;;;;;;;23.30;13.95;;;;;;;7.67;55.49;100323.03;2623753;47;20031;-63
2022/03/22 00:02:53;;;;;;;18.95;14.20;;;;;;;7.62;55.72;100329.66;2623971;54;20022;-63
2022/03/22 00:05:23;;;;;;;23.33;14.27;;;;;;;7.43;55.95;100327.84;2623992;54;20022;-64
2022/03/22 00:07:56;;;;;;;24.67;15.20;;;;;;;7.33;56.31;100335.69;2624137;54;20030;-70
2022/03/22 00:10:25;;;;;;;22.05;14.90;;;;;;;7.23;56.58;100331.38;2623932;54;20065;-65
2022/03/22 00:12:56;;;;;;;24.08;15.75;;;;;;;7.11;56.99;100336.72;2622273;46;20079;-63
2022/03/22 00:15:27;;;;;;;20.48;15.18;;;;;;;6.99;57.16;100329.06;2623315;47;20042;-65
2022/03/22 00:18:19;;;;;;;21.70;15.20;;;;;;;6.98;57.34;100330.00;2623198;54;20037;-65
2022/03/22 00:20:49;;;;;;;19.92;14.93;;;;;;;6.98;57.41;100332.63;2624063;54;20057;-66
2022/03/22 00:23:22;;;;;;;17.13;12.93;;;;;;;6.95;57.04;100328.50;2624222;54;20034;-67
2022/03/22 00:25:52;;;;;;;18.45;13.55;;;;;;;6.90;56.89;100334.16;2624028;54;20034;-65
2022/03/22 00:28:24;;;;;;;20.17;14.35;;;;;;;6.85;56.95;100328.44;2622707;47;20041;-67
2022/03/22 00:30:57;;;;;;;22.30;13.73;;;;;;;6.78;56.88;100347.53;2622136;47;20061;-65
2022/03/22 00:33:26;;;;;;;20.05;13.07;;;;;;;6.75;56.95;100335.47;2622255;47;20037;-65
2022/03/22 00:35:57;;;;;;;17.13;13.48;;;;;;;6.73;57.04;100336.53;2622790;39;20444;-65
2022/03/22 00:38:29;;;;;;;18.52;14.10;;;;;;;6.53;57.45;100335.59;2621498;47;20138;-63
2022/03/22 00:41:02;;;;;;;21.55;13.85;;;;;;;6.50;57.34;100339.34;2620564;47;20022;-65
2022/03/22 00:43:34;;;;;;;23.20;15.15;;;;;;;6.51;57.70;100338.38;2620328;47;20552;-66
2022/03/22 00:46:07;;;;;;;24.60;13.90;;;;;;;6.44;57.75;100339.84;2620607;54;20026;-65
2022/03/22 00:48:36;;;;;;;23.00;14.98;;;;;;;6.41;57.91;100335.69;2620906;54;20045;-64
2022/03/22 00:51:07;;;;;;;17.52;14.45;;;;;;;6.36;58.30;100329.97;2622511;54;20041;-65
2022/03/22 00:53:40;;;;;;;19.80;13.30;;;;;;;6.37;58.25;100341.31;2622106;54;20034;-64
2022/03/22 00:56:11;;;;;;;21.65;14.13;;;;;;;6.41;58.29;100335.69;2621527;46;20085;-67
2022/03/22 00:58:40;;;;;;;19.63;12.70;;;;;;;6.42;58.21;100328.63;2621179;54;20038;-64
2022/03/22 01:01:10;;;;;;;15.80;12.43;;;;;;;6.43;57.72;100339.00;2621367;54;20041;-65
2022/03/22 01:03:40;;;;;;;21.63;13.40;;;;;;;6.42;57.88;100326.84;2621774;54;20030;-64
2022/03/22 01:06:11;;;;;;;17.30;14.10;;;;;;;6.34;57.91;100331.06;2621855;54;20029;-64
2022/03/22 01:08:44;;;;;;;21.42;14.07;;;;;;;6.28;58.08;100342.06;2622294;54;20039;-65
2022/03/22 01:11:14;;;;;;;21.05;13.18;;;;;;;6.24;57.57;100343.28;2621705;54;20042;-65
2022/03/22 01:13:43;;;;;;;16.92;12.82;;;;;;;6.09;56.98;100340.16;2621321;47;20587;-65
2022/03/22 01:16:13;;;;;;;18.10;11.38;;;;;;;5.93;56.80;100340.56;2621454;54;20599;-66
2022/03/22 01:18:43;;;;;;;16.33;11.55;;;;;;;5.84;56.94;100346.53;2621597;54;20038;-65
2022/03/22 01:21:12;;;;;;;15.13;11.18;;;;;;;5.74;56.77;100337.72;2621524;39;20476;-65
2022/03/22 01:23:45;;;;;;;15.50;10.85;;;;;;;5.68;57.02;100349.56;2622249;54;20035;-65
2022/03/22 01:26:14;;;;;;;18.77;11.80;;;;;;;5.66;57.24;100336.56;2621820;54;20045;-66
2022/03/22 01:28:44;;;;;;;19.08;12.20;;;;;;;5.77;57.63;100340.13;2622311;54;20044;-65
2022/03/22 01:31:14;;;;;;;31.23;15.18;;;;;;;5.84;56.96;100329.00;2623167;39;20425;-64
2022/03/22 01:33:44;;;;;;;28.20;13.52;;;;;;;5.89;57.34;100328.63;2623863;39;20456;-64
2022/03/22 01:36:14;;;;;;;21.75;13.50;;;;;;;5.80;57.34;100326.75;2621354;54;20033;-64
2022/03/22 01:38:46;;;;;;;19.05;12.00;;;;;;;5.75;57.64;100332.34;2621843;54;20049;-64
2022/03/22 01:41:16;;;;;;;19.00;12.70;;;;;;;5.71;57.83;100331.78;2622484;54;20149;-63
2022/03/22 01:43:46;;;;;;;20.50;12.63;;;;;;;5.76;57.88;100328.78;2621946;54;20045;-65
2022/03/22 01:46:16;;;;;;;16.88;12.65;;;;;;;5.87;58.01;100327.91;2621789;54;20506;-64
2022/03/22 01:48:46;;;;;;;21.13;12.95;;;;;;;5.91;57.39;100324.06;2622078;54;20541;-64
2022/03/22 01:51:16;;;;;;;17.77;13.45;;;;;;;5.87;57.85;100327.91;2621622;46;20018;-64
2022/03/22 01:53:49;;;;;;;21.55;13.05;;;;;;;5.69;57.59;100328.44;2622355;54;20026;-64
2022/03/22 01:56:19;;;;;;;18.60;13.48;;;;;;;5.59;57.92;100326.66;2622862;54;20038;-66
2022/03/22 01:58:50;;;;;;;18.85;14.38;;;;;;;5.52;58.54;100322.91;2622617;54;20584;-63
2022/03/22 02:06:48;;;;;;;20.27;14.15;;;;;;;5.33;59.03;100318.28;2623151;54;20026;-63
2022/03/22 02:09:20;;;;;;;21.48;14.13;;;;;;;5.18;59.27;100322.94;2622220;54;20038;-64
2022/03/22 02:11:50;;;;;;;19.92;14.40;;;;;;;5.12;59.67;100307.69;2622239;54;20038;-65
2022/03/22 02:14:20;;;;;;;20.30;13.45;;;;;;;5.08;59.71;100312.34;2622208;46;20085;-64
2022/03/22 02:16:49;;;;;;;25.42;13.75;;;;;;;5.05;60.20;100307.34;2622020;54;20053;-65
2022/03/22 02:19:19;;;;;;;20.15;14.15;;;;;;;4.99;59.80;100307.84;2622004;54;20030;-64
2022/03/22 02:21:52;;;;;;;21.95;14.85;;;;;;;4.90;60.03;100305.94;2622470;54;20554;-64
2022/03/22 02:24:25;;;;;;;20.60;13.97;;;;;;;4.83;60.47;100310.81;2622599;54;20034;-64
2022/03/22 02:26:55;;;;;;;21.73;15.13;;;;;;;4.77;60.80;100311.25;2622127;54;20569;-64
2022/03/22 02:29:24;;;;;;;19.20;14.00;;;;;;;4.77;60.88;100308.66;2621599;47;20034;-64
2022/03/22 02:31:56;;;;;;;22.23;13.93;;;;;;;4.75;60.48;100302.72;2621789;47;20034;-63
2022/03/22 02:34:26;;;;;;;18.90;12.73;;;;;;;4.76;60.23;100304.38;2622762;54;20033;-63
2022/03/22 02:36:55;;;;;;;21.73;13.20;;;;;;;4.74;60.37;100308.91;2623344;54;20037;-65
2022/03/22 02:39:28;;;;;;;17.63;13.52;;;;;;;4.73;60.67;100309.84;2623224;54;20038;-66
2022/03/22 02:41:57;;;;;;;16.58;12.85;;;;;;;4.75;60.69;100300.09;2623592;54;20541;-64
2022/03/22 02:44:27;;;;;;;16.92;12.15;;;;;;;4.76;59.76;100299.13;2623215;54;20034;-63
2022/03/22 02:46:56;;;;;;;15.07;10.90;;;;;;;4.66;59.20;100304.25;2622661;54;20090;-65
2022/03/22 02:49:26;;;;;;;16.70;11.43;;;;;;;4.67;59.65;100303.28;2622774;54;20030;-64
2022/03/22 02:51:56;;;;;;;15.95;11.43;;;;;;;4.77;59.25;100305.19;2623188;54;20049;-63
2022/03/22 02:54:28;;;;;;;17.30;10.98;;;;;;;4.69;58.79;100309.28;2622644;54;20061;-64
2022/03/22 02:56:57;;;;;;;15.77;11.68;;;;;;;4.64;58.53;100305.31;2623682;54;20062;-64
2022/03/22 02:59:27;;;;;;;16.55;10.80;;;;;;;4.50;58.46;100313.41;2623457;54;20041;-64
2022/03/22 03:01:57;;;;;;;14.98;10.75;;;;;;;4.50;58.75;100308.16;2622956;54;20030;-64
2022/03/22 03:04:27;;;;;;;13.65;11.68;;;;;;;4.60;58.93;100309.13;2623539;54;20031;-64
2022/03/22 03:06:56;;;;;;;17.42;12.30;;;;;;;4.61;58.58;100316.88;2623860;54;20098;-63
2022/03/22 03:09:29;;;;;;;15.73;11.73;;;;;;;4.63;58.57;100316.75;2623455;54;20046;-65
2022/03/22 03:11:58;;;;;;;17.98;12.25;;;;;;;4.68;58.84;100312.81;2624008;54;20573;-64
2022/03/22 03:14:43;;;;;;;18.95;13.07;;;;;;;4.62;58.74;100310.69;2623601;54;20072;-64
2022/03/22 03:17:16;;;;;;;18.95;13.30;;;;;;;4.47;58.96;100309.22;2622745;54;20050;-65
2022/03/22 03:19:47;;;;;;;20.73;13.70;;;;;;;4.40;59.80;100308.00;2623461;39;20417;-64
2022/03/22 03:22:16;;;;;;;21.42;14.90;;;;;;;4.24;60.00;100318.81;2623474;54;20589;-64
2022/03/22 03:24:48;;;;;;;21.77;14.02;;;;;;;4.12;60.50;100317.97;2623184;54;20612;-63
2022/03/22 03:27:19;;;;;;;20.42;14.20;;;;;;;4.11;60.39;100324.13;2622379;47;20034;-64
2022/03/22 03:29:49;;;;;;;19.70;13.13;;;;;;;4.03;60.81;100318.63;2623783;54;20037;-64
2022/03/22 03:32:19;;;;;;;23.27;13.77;;;;;;;4.03;60.83;100323.84;2623820;54;20033;-63
2022/03/22 03:34:49;;;;;;;20.30;13.27;;;;;;;4.22;60.88;100315.47;2623904;54;20034;-65
2022/03/22 03:37:23;;;;;;;20.73;14.13;;;;;;;4.29;60.47;100323.72;2623810;54;20037;-63
2022/03/22 03:39:55;;;;;;;17.90;13.55;;;;;;;4.17;60.54;100331.53;2624231;54;20042;-64
2022/03/22 03:42:25;;;;;;;20.23;13.77;;;;;;;4.08;60.90;100328.75;2623814;54;20038;-64
2022/03/22 03:47:37;;;;;;;21.52;14.85;;;;;;;3.88;61.35;100332.84;2623399;54;20038;-63
2022/03/22 03:50:09;;;;;;;21.67;15.55;;;;;;;3.89;61.41;100334.53;2624147;54;20043;-64
2022/03/22 03:52:40;;;;;;;21.27;14.23;;;;;;;3.81;61.27;100334.25;2624787;39;20503;-66
2022/03/22 03:55:13;;;;;;;20.13;15.02;;;;;;;3.72;61.57;100339.19;2624678;54;20034;-67
2022/03/22 03:57:44;;;;;;;23.10;14.30;;;;;;;3.69;61.84;100338.59;2624209;54;20041;-63
2022/03/22 04:00:15;;;;;;;22.65;15.15;;;;;;;3.69;61.68;100341.19;2624329;54;20366;-65
2022/03/22 04:02:46;;;;;;;17.27;12.73;;;;;;;3.68;61.79;100347.38;2623752;54;20039;-64
2022/03/22 04:05:16;;;;;;;19.75;13.82;;;;;;;3.66;61.55;100344.03;2623099;47;20030;-65
2022/03/22 04:07:45;;;;;;;19.00;13.88;;;;;;;3.67;61.67;100349.16;2623732;54;20599;-64
2022/03/22 04:10:17;;;;;;;21.88;13.25;;;;;;;3.57;61.44;100344.69;2623750;54;20027;-65
2022/03/22 04:12:47;;;;;;;22.20;13.43;;;;;;;3.55;61.55;100342.22;2623311;54;20035;-65
2022/03/22 04:15:16;;;;;;;19.95;13.65;;;;;;;3.62;61.94;100337.34;2622645;54;20038;-65
2022/03/22 04:17:48;;;;;;;22.05;13.95;;;;;;;3.59;61.16;100351.50;2621622;54;20034;-65
2022/03/22 04:20:18;;;;;;;19.50;14.52;;;;;;;3.47;61.60;100341.91;2620697;54;20045;-64
2022/03/22 04:22:47;;;;;;;23.15;14.38;;;;;;;3.48;61.79;100340.97;2621701;54;20573;-65
2022/03/22 04:25:20;;;;;;;22.63;14.43;;;;;;;3.51;61.31;100345.97;2622018;54;20034;-64
2022/03/22 04:33:14;;;;;;;25.52;15.75;;;;;;;3.19;61.77;100341.25;2622160;54;20038;-63
2022/03/22 04:35:43;;;;;;;24.70;16.27;;;;;;;3.21;62.19;100341.97;2622225;39;20407;-66
2022/03/22 04:38:13;;;;;;;27.10;17.40;;;;;;;3.14;62.27;100345.09;2622548;39;20433;-65
2022/03/22 04:40:47;;;;;;;31.67;16.55;;;;;;;3.00;62.57;100345.25;2623068;54;20576;-64
2022/03/22 04:43:21;;;;;;;25.13;16.30;;;;;;;2.99;62.82;100349.66;2622032;47;20544;-64
2022/03/22 04:45:51;;;;;;;27.38;16.95;;;;;;;3.10;62.99;100349.75;2622716;54;20553;-64
2022/03/22 04:48:20;;;;;;;25.52;15.85;;;;;;;3.23;62.96;100352.31;2622781;54;20031;-65
2022/03/22 04:56:43;;;;;;;23.08;15.50;;;;;;;3.36;63.33;100350.50;2622504;54;20034;-64
2022/03/22 04:59:10;;;;;;;22.77;16.52;;;;;;;2.97;62.80;100349.72;2622558;54;20038;-64
2022/03/22 05:01:45;;;;;;;26.10;17.42;;;;;;;2.84;63.06;100346.31;2622644;54;20022;-66
2022/03/22 05:04:15;;;;;;;26.90;17.67;;;;;;;2.71;63.98;100350.69;2621612;54;20042;-66
2022/03/22 05:06:45;;;;;;;23.63;17.23;;;;;;;2.64;64.12;100360.72;2621988;54;20022;-65
2022/03/22 05:09:15;;;;;;;28.38;16.92;;;;;;;2.66;64.20;100350.19;2621817;54;20034;-64
2022/03/22 05:11:47;;;;;;;26.38;16.58;;;;;;;2.82;64.48;100352.59;2621558;54;20033;-64
2022/03/22 05:14:17;;;;;;;24.38;15.88;;;;;;;3.01;64.14;100355.59;2621408;54;20081;-65
2022/03/22 05:16:47;;;;;;;23.33;14.55;;;;;;;3.17;63.55;100356.19;2621135;54;20070;-63
2022/03/22 05:19:17;;;;;;;20.35;14.40;;;;;;;3.18;63.05;100354.41;2621398;54;20037;-65
2022/03/22 05:21:47;;;;;;;24.35;17.75;;;;;;;3.01;62.64;100357.38;2622063;54;20030;-64
2022/03/22 05:24:17;;;;;;;25.38;16.83;;;;;;;2.73;62.82;100360.13;2622541;54;20026;-63
2022/03/22 05:26:50;;;;;;;23.15;15.30;;;;;;;2.59;63.25;100357.59;2622505;54;20050;-65
2022/03/22 05:29:21;;;;;;;23.05;16.15;;;;;;;2.60;63.40;100368.88;2622313;54;20031;-65
2022/03/22 05:31:50;;;;;;;21.00;15.15;;;;;;;2.52;63.43;100368.53;2622218;54;20039;-64
2022/03/22 05:34:20;;;;;;;20.63;13.27;;;;;;;2.48;63.77;100370.50;2622417;54;20040;-63
2022/03/22 05:36:49;;;;;;;26.60;14.60;;;;;;;2.48;63.59;100375.75;2622210;54;20026;-64
2022/03/22 05:39:19;;;;;;;21.75;14.30;;;;;;;2.50;63.18;100367.81;2622518;54;20027;-65
2022/03/22 05:41:51;;;;;;;21.25;14.95;;;;;;;2.54;63.36;100371.91;2622355;54;20724;-64
2022/03/22 05:44:21;;;;;;;18.27;12.77;;;;;;;2.55;63.26;100378.78;2621647;47;20483;-65
2022/03/22 05:46:51;;;;;;;19.95;12.50;;;;;;;2.55;62.71;100382.22;2622388;54;20026;-64
2022/03/22 05:49:21;;;;;;;17.15;12.15;;;;;;;2.52;62.34;100377.19;2622189;54;20038;-64
2022/03/22 05:51:51;;;;;;;16.23;12.00;;;;;;;2.56;62.78;100377.84;2621209;54;20038;-65
2022/03/22 05:54:21;;;;;;;18.38;12.48;;;;;;;2.63;62.39;100381.72;2621615;47;20026;-64
2022/03/22 05:56:53;;;;;;;18.33;12.80;;;;;;;2.69;62.19;100376.06;2622318;54;20034;-64
2022/03/22 05:59:23;;;;;;;16.75;11.82;;;;;;;2.75;62.03;100373.06;2622544;54;20050;-64
2022/03/22 06:01:52;;;;;;;17.42;12.40;;;;;;;2.84;61.52;100379.44;2621756;46;20033;-65
2022/03/22 06:04:22;;;;;;;15.80;11.82;;;;;;;2.82;61.78;100376.94;2621763;54;20023;-63
2022/03/22 06:06:52;;;;;;;18.88;11.88;;;;;;;2.95;61.92;100377.75;2621711;47;20026;-63
2022/03/22 06:09:21;;;;;;;18.80;13.60;;;;;;;3.14;61.39;100373.84;2622173;54;20041;-64
2022/03/22 06:11:53;;;;;;;17.15;12.10;;;;;;;3.14;60.85;100377.34;2623819;54;20030;-63
2022/03/22 06:14:23;;;;;;;18.17;12.02;;;;;;;3.15;60.18;100379.00;2623936;39;20470;-63
2022/03/22 06:16:52;;;;;;;18.15;12.10;;;;;;;3.12;59.97;100368.75;2623534;54;20065;-64
2022/03/22 06:19:22;;;;;;;14.82;11.85;;;;;;;3.04;59.86;100365.84;2623085;54;20073;-65
2022/03/22 06:21:52;;;;;;;19.63;12.55;;;;;;;3.05;60.11;100370.09;2622977;39;20442;-65
2022/03/22 06:24:21;;;;;;;19.30;13.60;;;;;;;3.05;59.80;100372.72;2623027;54;20038;-63
2022/03/22 06:26:54;;;;;;;22.23;12.85;;;;;;;2.94;60.57;100373.47;2622596;47;20026;-64
2022/03/22 06:29:23;;;;;;;16.85;12.23;;;;;;;3.00;60.56;100368.75;2622569;54;20030;-65
2022/03/22 06:31:53;;;;;;;23.02;13.30;;;;;;;3.06;60.34;100374.41;2622574;54;20031;-65
2022/03/22 06:34:22;;;;;;;17.58;13.00;;;;;;;3.10;60.25;100381.09;2622115;54;20034;-65
2022/03/22 06:36:52;;;;;;;18.88;13.07;;;;;;;3.15;60.22;100378.16;2621536;54;20037;-65
2022/03/22 06:39:22;;;;;;;18.55;12.85;;;;;;;3.19;59.96;100384.84;2622763;39;20230;-65
2022/03/22 06:41:54;;;;;;;20.52;13.40;;;;;;;3.20;59.77;100389.94;2621955;54;20034;-64
2022/03/22 06:44:24;;;;;;;19.45;13.10;;;;;;;3.17;59.70;100386.72;2622138;54;20027;-64
2022/03/22 06:46:54;;;;;;;18.33;12.35;;;;;;;3.26;60.19;100390.47;2622121;46;20045;-64
2022/03/22 06:49:23;;;;;;;16.52;13.18;;;;;;;3.43;60.26;100384.91;2621732;54;20570;-64
2022/03/22 06:51:53;;;;;;;18.42;13.23;;;;;;;3.41;59.41;100390.22;2621778;54;20534;-64
2022/03/22 06:54:23;;;;;;;16.90;12.82;;;;;;;3.39;59.63;100396.53;2621724;54;20046;-64
2022/03/22 06:56:55;;;;;;;22.70;13.77;;;;;;;3.48;59.62;100395.88;2622370;39;20491;-66
2022/03/22 06:59:26;;;;;;;21.27;14.30;;;;;;;3.59;59.34;100390.72;2621424;54;20038;-66
2022/03/22 07:01:56;;;;;;;15.80;12.68;;;;;;;3.67;59.40;100383.16;2621452;54;20027;-64
2022/03/22 07:04:25;;;;;;;19.23;12.85;;;;;;;3.82;59.54;100393.47;2622634;39;20417;-64
2022/03/22 07:06:55;;;;;;;18.42;13.30;;;;;;;3.94;58.52;100384.72;2623891;39;20517;-65
2022/03/22 07:09:25;;;;;;;20.20;12.90;;;;;;;4.02;58.79;100392.84;2622504;54;20041;-65
2022/03/22 07:11:58;;;;;;;25.58;14.43;;;;;;;4.27;58.87;100389.25;2622370;54;20046;-65
2022/03/22 07:14:30;;;;;;;20.60;13.70;;;;;;;4.44;58.44;100390.63;2623569;54;20069;-65
2022/03/22 07:17:00;;;;;;;20.48;14.90;;;;;;;4.56;58.10;100397.56;2623722;54;20030;-65
2022/03/22 07:19:29;;;;;;;26.50;17.30;;;;;;;4.63;57.95;100396.16;2623157;54;20034;-69
2022/03/22 07:21:59;;;;;;;18.50;14.40;;;;;;;4.66;57.84;100392.50;2623584;54;20035;-64
2022/03/22 07:24:29;;;;;;;18.92;14.90;;;;;;;4.83;57.72;100391.22;2625495;39;20210;-63
2022/03/22 07:27:02;;;;;;;20.95;14.80;;;;;;;4.91;57.54;100388.84;2623968;54;20069;-64
2022/03/22 07:29:31;;;;;;;17.95;14.05;;;;;;;4.98;57.23;100395.28;2623406;54;20042;-64
2022/03/22 07:32:03;;;;;;;20.58;15.07;;;;;;;5.10;56.82;100391.72;2622396;54;20026;-64
2022/03/22 07:34:33;;;;;;;18.67;13.95;;;;;;;5.24;57.04;100388.00;2622859;54;20569;-65
2022/03/22 07:37:03;;;;;;;19.58;14.05;;;;;;;5.40;56.36;100392.91;2623390;54;20518;-65
2022/03/22 07:39:34;;;;;;;23.40;15.18;;;;;;;5.53;56.37;100390.97;2625364;39;20402;-63
2022/03/22 07:42:09;;;;;;;28.85;18.40;;;;;;;5.72;56.04;100393.81;2622324;54;20040;-65
2022/03/22 07:44:39;;;;;;;;;;;;;;;5.75;55.42;100392.69;2621725;54;20035;-66
2022/03/22 07:47:09;;;;;;;26.52;17.15;;;;;;;5.86;55.65;100394.47;2618687;54;20026;-65
2022/03/22 07:55:03;;;;;;;29.88;18.23;;;;;;;6.16;54.33;100391.19;2622162;54;20033;-63
2022/03/22 07:57:35;;;;;;;25.13;18.90;;;;;;;6.20;54.54;100389.97;2622233;39;20453;-63
2022/03/22 08:00:06;;;;;;;24.33;17.80;;;;;;;6.28;54.50;100390.16;2621900;54;20046;-64
2022/03/22 08:02:37;;;;;;;27.77;18.58;;;;;;;6.34;54.18;100392.31;2623967;54;20026;-65
2022/03/22 08:05:08;;;;;;;27.75;17.98;;;;;;;6.42;53.45;100392.50;2623397;54;20030;-66
2022/03/22 08:07:38;;;;;;;26.92;18.55;;;;;;;6.52;53.88;100391.75;2622126;54;20522;-64
2022/03/22 08:10:08;;;;;;;24.92;16.27;;;;;;;6.65;53.86;100392.38;2621364;54;20027;-64
2022/03/22 08:12:40;;;;;;;28.92;16.77;;;;;;;6.84;53.84;100384.63;2621757;54;20081;-65
2022/03/22 08:15:11;;;;;;;22.55;17.10;;;;;;;7.03;53.57;100385.69;2622302;54;20034;-64
2022/03/22 08:17:41;;;;;;;23.98;16.67;;;;;;;7.22;53.03;100384.94;2623007;39;20403;-64
2022/03/22 08:20:12;;;;;;;24.38;18.30;;;;;;;7.37;52.82;100386.25;2621621;54;20027;-64
2022/03/22 08:22:50;;;;;;;26.30;19.20;;;;;;;7.56;52.75;100380.22;2621916;39;20119;-65
2022/03/22 08:25:27;;;;;;;27.60;18.73;;;;;;;7.69;52.29;100375.53;2620251;54;20146;-66
2022/03/22 08:28:02;;;;;;;23.30;17.50;;;;;;;7.78;51.55;100381.78;2621243;54;20267;-64
2022/03/22 08:30:32;;;;;;;26.90;18.20;;;;;;;7.89;51.74;100371.13;2621492;39;20477;-65
2022/03/22 08:33:06;;;;;;;26.13;18.58;;;;;;;8.04;51.71;100375.03;2621418;54;20041;-65
2022/03/22 08:35:36;;;;;;;23.65;17.98;;;;;;;8.18;51.13;100381.69;2620922;54;20034;-68
2022/03/22 08:38:06;;;;;;;27.35;17.70;;;;;;;8.26;50.44;100375.72;2621936;54;20045;-64
2022/03/22 08:40:36;;;;;;;27.42;17.55;;;;;;;8.28;50.09;100369.31;2622008;54;20046;-65
2022/03/22 08:43:09;;;;;;;25.02;16.85;;;;;;;8.40;49.76;100370.88;2621793;54;20080;-64
2022/03/22 08:45:40;;;;;;;27.53;18.07;;;;;;;8.55;49.02;100373.09;2621860;54;20030;-63
2022/03/22 08:48:12;;;;;;;28.05;19.75;;;;;;;8.62;48.12;100374.19;2622546;54;20065;-64
2022/03/22 08:50:44;;;;;;;26.10;17.75;;;;;;;8.64;47.96;100369.59;2622500;39;20424;-63
2022/03/22 08:53:16;;;;;;;23.65;17.45;;;;;;;8.72;48.25;100377.63;2621741;54;20033;-65
2022/03/22 08:55:52;;;;;;;24.27;17.90;;;;;;;8.90;47.96;100373.28;2621846;47;20023;-63
2022/03/22 08:58:25;;;;;;;23.08;17.92;;;;;;;9.05;47.58;100378.91;2622604;54;20145;-63
2022/03/22 09:00:57;;;;;;;22.90;17.23;;;;;;;9.23;46.53;100373.72;2622539;54;20037;-63
2022/03/22 09:03:29;;;;;;;24.20;18.52;;;;;;;9.32;45.97;100372.84;2622432;54;20031;-66
2022/03/22 09:06:08;;;;;;;23.48;17.23;;;;;;;9.35;45.89;100374.38;2622392;54;20031;-65
2022/03/22 09:08:38;;;;;;;27.23;17.88;;;;;;;9.40;46.68;100372.94;2622077;54;20026;-63
2022/03/22 09:11:09;;;;;;;28.83;19.08;;;;;;;9.54;46.44;100366.31;2621821;54;20049;-64
2022/03/22 09:13:43;;;;;;;23.42;16.88;;;;;;;9.70;45.59;100364.84;2622135;54;20081;-64
2022/03/22 09:16:13;;;;;;;24.53;17.97;;;;;;;9.75;45.65;100357.31;2621589;46;20061;-64
2022/03/22 09:18:43;;;;;;;25.33;18.13;;;;;;;9.81;45.59;100354.09;2622361;54;20379;-64
2022/03/22 09:21:13;;;;;;;24.50;17.17;;;;;;;9.95;45.10;100353.56;2623239;39;20446;-64
2022/03/22 09:23:44;;;;;;;24.02;17.17;;;;;;;10.06;45.02;100355.16;2622944;54;20034;-64
2022/03/22 09:26:14;;;;;;;26.50;16.77;;;;;;;10.21;45.23;100356.28;2620860;47;20612;-64
2022/03/22 09:28:46;;;;;;;23.48;16.83;;;;;;;10.38;44.61;100363.38;2622327;54;20039;-63
2022/03/22 09:31:23;;;;;;;22.13;16.25;;;;;;;10.54;44.19;100346.00;2622458;54;20548;-65
2022/03/22 09:33:53;;;;;;;22.10;17.05;;;;;;;10.66;43.84;100347.41;2622974;39;20512;-64
2022/03/22 09:36:22;;;;;;;24.88;17.42;;;;;;;10.76;42.23;100353.41;2622707;54;20030;-64
2022/03/22 09:38:52;;;;;;;24.48;16.40;;;;;;;10.75;42.08;100351.75;2622504;47;20031;-64
2022/03/22 09:41:24;;;;;;;23.17;16.20;;;;;;;10.77;42.77;100346.28;2622881;47;20038;-64
2022/03/22 09:43:56;;;;;;;22.45;17.13;;;;;;;10.83;42.46;100345.69;2622854;54;20030;-62
2022/03/22 09:46:26;;;;;;;23.55;16.98;;;;;;;10.85;42.45;100346.34;2621801;54;20039;-64
2022/03/22 09:48:57;;;;;;;24.60;17.10;;;;;;;11.01;42.75;100351.72;2622491;54;20034;-64
2022/03/22 09:54:10;;;;;;;22.30;17.70;;;;;;;11.28;40.40;100344.56;2622765;54;20063;-65
2022/03/22 09:56:40;;;;;;;27.60;18.27;;;;;;;11.30;40.78;100343.41;2622878;54;20561;-65
2022/03/22 09:59:14;;;;;;;23.40;16.58;;;;;;;11.31;41.26;100337.16;2625810;39;20457;-64
2022/03/22 10:01:44;;;;;;;25.50;17.30;;;;;;;11.44;41.27;100343.81;2624409;54;20034;-64
2022/03/22 10:04:17;;;;;;;22.77;15.80;;;;;;;11.50;41.31;100333.38;2623714;54;20030;-64
2022/03/22 10:06:54;;;;;;;27.17;18.42;;;;;;;11.68;40.43;100335.94;2622417;54;20046;-64
2022/03/22 10:09:31;;;;;;;21.67;17.88;;;;;;;11.79;39.68;100338.25;2622491;54;20648;-64
2022/03/22 10:12:01;;;;;;;24.02;15.90;;;;;;;11.83;40.19;100328.19;2622512;54;20038;-64
2022/03/22 10:14:42;;;;;;;28.55;18.25;;;;;;;12.06;38.95;100326.56;2622221;54;20041;-64
2022/03/22 10:17:14;;;;;;;24.20;18.23;;;;;;;12.03;39.58;100321.59;2622218;54;20038;-64
2022/03/22 10:19:48;;;;;;;22.85;15.82;;;;;;;12.18;39.61;100323.59;2621772;54;20038;-65
2022/03/22 10:22:19;;;;;;;22.05;16.08;;;;;;;12.29;38.64;100318.78;2621008;47;20110;-64
2022/03/22 10:24:50;;;;;;;24.75;17.38;;;;;;;12.36;37.90;100322.41;2621576;54;20771;-63
2022/03/22 10:27:25;;;;;;;20.02;15.07;;;;;;;12.48;37.52;100317.59;2621755;54;20038;-64
2022/03/22 10:30:18;;;;;;;24.63;17.73;;;;;;;12.73;35.91;100317.56;2622159;54;20038;-63
2022/03/22 10:32:51;;;;;;;20.00;16.20;;;;;;;12.78;35.33;100312.59;2623246;39;20462;-64
2022/03/22 10:35:22;;;;;;;21.70;16.83;;;;;;;12.82;34.19;100314.72;2622400;54;20549;-64
2022/03/22 10:37:54;;;;;;;21.63;16.27;;;;;;;12.91;33.40;100312.06;2622568;54;20081;-65
2022/03/22 10:40:26;;;;;;;18.85;14.70;;;;;;;12.93;33.88;100302.06;2622716;54;20050;-64
2022/03/22 10:42:58;;;;;;;19.63;14.40;;;;;;;12.82;33.89;100300.63;2621503;47;20034;-64
2022/03/22 10:45:33;;;;;;;18.63;13.38;;;;;;;12.92;33.38;100303.06;2621194;54;20089;-65
2022/03/22 10:48:04;;;;;;;25.00;16.00;;;;;;;12.88;33.37;100291.97;2620881;39;20417;-64
2022/03/22 10:50:38;;;;;;;18.42;13.60;;;;;;;12.94;33.14;100295.75;2621279;47;20557;-63
2022/03/22 10:53:08;;;;;;;17.85;14.00;;;;;;;13.00;32.76;100287.13;2621657;54;20122;-63
2022/03/22 10:55:38;;;;;;;21.42;15.07;;;;;;;13.20;32.62;100287.53;2621912;54;20030;-64
2022/03/22 10:58:08;;;;;;;18.70;14.50;;;;;;;13.49;31.38;100297.53;2622808;54;20030;-64
2022/03/22 11:00:40;;;;;;;20.27;15.00;;;;;;;13.51;32.06;100291.06;2622611;54;20031;-64
2022/03/22 11:03:12;;;;;;;16.67;13.93;;;;;;;13.56;32.04;100290.53;2622612;54;20037;-63
2022/03/22 11:05:43;;;;;;;17.13;14.00;;;;;;;13.56;31.63;100285.22;2622499;54;20056;-64
2022/03/22 11:08:16;;;;;;;23.08;14.30;;;;;;;13.71;31.54;100285.28;2620999;54;20044;-65
2022/03/22 11:10:45;;;;;;;19.55;15.40;;;;;;;13.73;31.58;100285.94;2621413;47;20026;-65
2022/03/22 11:13:19;;;;;;;17.30;13.70;;;;;;;13.82;31.03;100282.22;2622145;54;20038;-68
2022/03/22 11:15:52;;;;;;;15.88;14.15;;;;;;;13.85;31.95;100276.53;2620374;54;20042;-65
2022/03/22 11:18:24;;;;;;;19.45;14.88;;;;;;;13.95;31.69;100274.47;2621139;54;20082;-65
2022/03/22 11:20:55;;;;;;;17.95;13.23;;;;;;;14.02;31.83;100266.59;2621244;54;20047;-65
2022/03/22 13:25:12;;;;;;;16.27;13.77;;;;;;;16.70;28.04;100153.63;2619129;54;20297;-62
2022/03/22 13:27:42;;;;;;;18.20;14.10;;;;;;;16.86;27.25;100152.47;2623499;54;20033;-64
2022/03/22 13:30:22;;;;;;;18.95;16.80;;;;;;;16.85;27.28;100143.63;2621806;54;20019;-64
2022/03/22 13:32:51;;;;;;;18.13;15.80;;;;;;;16.89;28.37;100149.41;2619910;54;20038;-64
2022/03/22 13:35:23;;;;;;;26.10;17.20;;;;;;;16.92;28.50;100138.31;2620951;54;20038;-63
2022/03/22 13:37:55;;;;;;;21.90;17.13;;;;;;;16.87;28.22;100141.59;2621237;54;20011;-64
2022/03/22 13:40:27;;;;;;;22.15;18.30;;;;;;;16.97;28.30;100138.53;2621428;54;20027;-64
2022/03/22 13:43:03;;;;;;;20.52;16.95;;;;;;;17.07;28.22;100130.97;2621899;54;20049;-64
2022/03/22 13:45:32;;;;;;;21.50;17.50;;;;;;;17.01;28.61;100135.25;2623578;54;20070;-65
2022/03/22 13:48:08;;;;;;;26.60;16.88;;;;;;;16.92;28.11;100131.13;2623576;54;20038;-64
2022/03/22 13:50:39;;;;;;;22.63;17.15;;;;;;;16.91;28.29;100131.34;2623462;54;20035;-65
2022/03/22 13:53:12;;;;;;;23.15;17.80;;;;;;;16.95;27.94;100127.25;2623805;54;20031;-64
2022/03/22 13:55:46;;;;;;;22.90;17.80;;;;;;;16.88;28.38;100121.06;2623964;54;20034;-65
2022/03/22 13:58:18;;;;;;;21.92;16.17;;;;;;;16.88;28.00;100118.38;2624057;54;20037;-64
2022/03/22 14:00:52;;;;;;;23.42;17.15;;;;;;;16.90;28.01;100114.50;2623791;54;20030;-65
2022/03/22 14:03:23;;;;;;;23.58;17.55;;;;;;;16.88;27.43;100111.19;2623824;54;20038;-64